METAR Data
IDs: Format: Raw Decoded Include TAF

Data at: 0836 UTC 07 Apr 2020

METAR for:KDAA (Fort Belvoir/Davison, VA, US)
Text:KDAA 070756Z AUTO 00000KT 10SM CLR 10/06 A2996 RMK AO2 RAB11E18 SLP148 P0000 T00970060 $
Temperature: 9.7°C ( 49°F)
Dewpoint: 6.0°C ( 43°F) [RH = 78%]
Pressure (altimeter):29.96 inches Hg (1014.6 mb) [Sea level pressure: 1014.8 mb]
Winds:calm
Visibility:10 or more sm (16+ km)
Ceiling:at least 12,000 feet AGL
Clouds:sky clear below 12,000 feet AGL
QC Flag:automated observation with no human augmentation; SOME DATA ABOVE MAY BE INACCURATE!!!"$" is an indication the sensor requires maintenance.